sensor_id;sensor_type;location;lat;lon;timestamp;P1;durP1;ratioP1;P2;durP2;ratioP2
16640;SDS011;8434;47.990;7.880;2023-04-24T00:01:37;1.40;;;0.40;;
16640;SDS011;8434;47.990;7.880;2023-04-24T00:04:23;0.60;;;0.60;;
16640;SDS011;8434;47.990;7.880;2023-04-24T00:07:09;1.03;;;0.90;;
16640;SDS011;8434;47.990;7.880;2023-04-24T00:09:56;0.53;;;0.47;;
16640;SDS011;8434;47.990;7.880;2023-04-24T00:12:42;1.07;;;0.50;;
16640;SDS011;8434;47.990;7.880;2023-04-24T00:15:27;1.07;;;0.63;;
16640;SDS011;8434;47.990;7.880;2023-04-24T00:18:16;0.83;;;0.40;;
16640;SDS011;8434;47.990;7.880;2023-04-24T00:21:02;2.70;;;0.60;;
16640;SDS011;8434;47.990;7.880;2023-04-24T00:23:47;1.40;;;0.40;;
16640;SDS011;8434;47.990;7.880;2023-04-24T00:26:34;0.37;;;0.30;;
16640;SDS011;8434;47.990;7.880;2023-04-24T00:29:20;0.83;;;0.50;;
16640;SDS011;8434;47.990;7.880;2023-04-24T00:32:05;1.23;;;0.63;;
16640;SDS011;8434;47.990;7.880;2023-04-24T00:34:50;0.43;;;0.43;;
16640;SDS011;8434;47.990;7.880;2023-04-24T00:37:36;0.97;;;0.40;;
16640;SDS011;8434;47.990;7.880;2023-04-24T00:40:21;0.50;;;0.40;;
16640;SDS011;8434;47.990;7.880;2023-04-24T00:43:08;0.93;;;0.53;;
16640;SDS011;8434;47.990;7.880;2023-04-24T00:45:54;0.60;;;0.40;;
16640;SDS011;8434;47.990;7.880;2023-04-24T00:48:39;0.90;;;0.57;;
16640;SDS011;8434;47.990;7.880;2023-04-24T00:51:25;0.83;;;0.60;;
16640;SDS011;8434;47.990;7.880;2023-04-24T00:54:11;0.50;;;0.40;;
16640;SDS011;8434;47.990;7.880;2023-04-24T00:56:56;1.47;;;0.60;;
16640;SDS011;8434;47.990;7.880;2023-04-24T00:59:43;0.50;;;0.50;;
16640;SDS011;8434;47.990;7.880;2023-04-24T01:02:29;1.43;;;0.40;;
16640;SDS011;8434;47.990;7.880;2023-04-24T01:05:15;0.80;;;0.47;;
16640;SDS011;8434;47.990;7.880;2023-04-24T01:08:01;1.80;;;0.40;;
16640;SDS011;8434;47.990;7.880;2023-04-24T01:10:47;2.60;;;0.70;;
16640;SDS011;8434;47.990;7.880;2023-04-24T01:13:33;0.40;;;0.40;;
16640;SDS011;8434;47.990;7.880;2023-04-24T01:16:20;2.03;;;0.50;;
16640;SDS011;8434;47.990;7.880;2023-04-24T01:19:05;1.77;;;0.53;;
16640;SDS011;8434;47.990;7.880;2023-04-24T01:21:51;1.30;;;0.53;;
16640;SDS011;8434;47.990;7.880;2023-04-24T01:24:40;1.67;;;0.50;;
16640;SDS011;8434;47.990;7.880;2023-04-24T01:27:25;0.43;;;0.37;;
16640;SDS011;8434;47.990;7.880;2023-04-24T01:30:11;1.50;;;0.60;;
16640;SDS011;8434;47.990;7.880;2023-04-24T01:32:56;0.67;;;0.60;;
16640;SDS011;8434;47.990;7.880;2023-04-24T01:35:42;1.00;;;0.50;;
16640;SDS011;8434;47.990;7.880;2023-04-24T01:38:27;0.57;;;0.50;;
16640;SDS011;8434;47.990;7.880;2023-04-24T01:41:14;0.73;;;0.60;;
16640;SDS011;8434;47.990;7.880;2023-04-24T01:44:02;0.80;;;0.70;;
16640;SDS011;8434;47.990;7.880;2023-04-24T01:46:47;1.83;;;0.60;;
16640;SDS011;8434;47.990;7.880;2023-04-24T01:49:33;3.43;;;0.67;;
16640;SDS011;8434;47.990;7.880;2023-04-24T01:52:18;2.17;;;0.83;;
16640;SDS011;8434;47.990;7.880;2023-04-24T01:55:05;0.67;;;0.50;;
16640;SDS011;8434;47.990;7.880;2023-04-24T01:57:52;2.30;;;0.80;;
16640;SDS011;8434;47.990;7.880;2023-04-24T02:00:40;2.30;;;0.67;;
16640;SDS011;8434;47.990;7.880;2023-04-24T02:03:26;1.93;;;1.20;;
16640;SDS011;8434;47.990;7.880;2023-04-24T02:06:11;4.17;;;0.90;;
16640;SDS011;8434;47.990;7.880;2023-04-24T02:08:57;2.17;;;0.70;;
16640;SDS011;8434;47.990;7.880;2023-04-24T02:11:42;1.53;;;0.70;;
16640;SDS011;8434;47.990;7.880;2023-04-24T02:14:29;0.60;;;0.50;;
16640;SDS011;8434;47.990;7.880;2023-04-24T02:17:14;1.37;;;0.63;;
16640;SDS011;8434;47.990;7.880;2023-04-24T02:20:00;2.53;;;1.03;;
16640;SDS011;8434;47.990;7.880;2023-04-24T02:22:46;1.00;;;0.50;;
16640;SDS011;8434;47.990;7.880;2023-04-24T02:25:32;2.43;;;0.67;;
16640;SDS011;8434;47.990;7.880;2023-04-24T02:28:18;0.87;;;0.60;;
16640;SDS011;8434;47.990;7.880;2023-04-24T02:31:05;0.60;;;0.43;;
16640;SDS011;8434;47.990;7.880;2023-04-24T02:33:51;2.43;;;0.83;;
16640;SDS011;8434;47.990;7.880;2023-04-24T02:36:37;3.63;;;0.70;;
16640;SDS011;8434;47.990;7.880;2023-04-24T02:39:22;3.17;;;0.97;;
16640;SDS011;8434;47.990;7.880;2023-04-24T02:42:10;5.03;;;1.40;;
16640;SDS011;8434;47.990;7.880;2023-04-24T02:44:55;2.50;;;0.83;;
16640;SDS011;8434;47.990;7.880;2023-04-24T02:47:42;2.80;;;0.47;;
16640;SDS011;8434;47.990;7.880;2023-04-24T02:50:28;2.17;;;0.57;;
16640;SDS011;8434;47.990;7.880;2023-04-24T02:53:13;1.30;;;0.90;;
16640;SDS011;8434;47.990;7.880;2023-04-24T02:55:58;2.40;;;0.80;;
16640;SDS011;8434;47.990;7.880;2023-04-24T02:58:43;2.50;;;1.07;;
16640;SDS011;8434;47.990;7.880;2023-04-24T03:01:33;1.23;;;0.60;;
16640;SDS011;8434;47.990;7.880;2023-04-24T03:04:20;1.67;;;0.70;;
16640;SDS011;8434;47.990;7.880;2023-04-24T03:07:06;1.43;;;0.60;;
16640;SDS011;8434;47.990;7.880;2023-04-24T03:09:51;1.43;;;0.77;;
16640;SDS011;8434;47.990;7.880;2023-04-24T03:12:37;1.20;;;0.70;;
16640;SDS011;8434;47.990;7.880;2023-04-24T03:15:22;3.50;;;1.00;;
16640;SDS011;8434;47.990;7.880;2023-04-24T03:18:07;3.50;;;1.30;;
16640;SDS011;8434;47.990;7.880;2023-04-24T03:20:54;3.80;;;2.07;;
16640;SDS011;8434;47.990;7.880;2023-04-24T03:23:39;0.80;;;0.70;;
16640;SDS011;8434;47.990;7.880;2023-04-24T03:26:28;0.60;;;0.47;;
16640;SDS011;8434;47.990;7.880;2023-04-24T03:29:35;0.50;;;0.50;;
16640;SDS011;8434;47.990;7.880;2023-04-24T03:32:20;2.83;;;0.70;;
16640;SDS011;8434;47.990;7.880;2023-04-24T03:35:06;0.73;;;0.50;;
16640;SDS011;8434;47.990;7.880;2023-04-24T03:37:53;1.13;;;0.50;;
16640;SDS011;8434;47.990;7.880;2023-04-24T03:41:05;1.93;;;1.03;;
16640;SDS011;8434;47.990;7.880;2023-04-24T03:44:10;1.70;;;0.50;;
16640;SDS011;8434;47.990;7.880;2023-04-24T03:46:57;1.90;;;0.77;;
16640;SDS011;8434;47.990;7.880;2023-04-24T03:49:42;0.70;;;0.70;;
16640;SDS011;8434;47.990;7.880;2023-04-24T03:52:28;1.60;;;0.70;;
16640;SDS011;8434;47.990;7.880;2023-04-24T03:55:15;3.03;;;0.70;;
16640;SDS011;8434;47.990;7.880;2023-04-24T03:58:03;1.33;;;0.60;;
16640;SDS011;8434;47.990;7.880;2023-04-24T04:00:49;1.30;;;0.60;;
16640;SDS011;8434;47.990;7.880;2023-04-24T04:03:58;0.50;;;0.50;;
16640;SDS011;8434;47.990;7.880;2023-04-24T04:06:45;1.07;;;0.53;;
16640;SDS011;8434;47.990;7.880;2023-04-24T04:09:31;1.70;;;0.67;;
16640;SDS011;8434;47.990;7.880;2023-04-24T04:12:19;1.77;;;0.63;;
16640;SDS011;8434;47.990;7.880;2023-04-24T04:15:05;1.03;;;0.50;;
16640;SDS011;8434;47.990;7.880;2023-04-24T04:17:51;0.60;;;0.60;;
16640;SDS011;8434;47.990;7.880;2023-04-24T04:20:37;2.53;;;0.90;;
16640;SDS011;8434;47.990;7.880;2023-04-24T04:23:22;1.60;;;0.70;;
16640;SDS011;8434;47.990;7.880;2023-04-24T04:26:31;2.53;;;1.00;;
16640;SDS011;8434;47.990;7.880;2023-04-24T04:29:23;1.70;;;0.90;;
16640;SDS011;8434;47.990;7.880;2023-04-24T04:32:10;2.30;;;1.07;;
16640;SDS011;8434;47.990;7.880;2023-04-24T04:34:55;1.10;;;0.80;;
16640;SDS011;8434;47.990;7.880;2023-04-24T04:37:44;3.33;;;0.97;;
16640;SDS011;8434;47.990;7.880;2023-04-24T04:40:49;1.23;;;0.83;;
16640;SDS011;8434;47.990;7.880;2023-04-24T04:43:36;1.90;;;0.90;;
16640;SDS011;8434;47.990;7.880;2023-04-24T04:46:25;2.17;;;1.00;;
16640;SDS011;8434;47.990;7.880;2023-04-24T04:49:28;2.07;;;1.10;;
16640;SDS011;8434;47.990;7.880;2023-04-24T04:52:14;2.00;;;1.10;;
16640;SDS011;8434;47.990;7.880;2023-04-24T04:55:02;2.40;;;1.00;;
16640;SDS011;8434;47.990;7.880;2023-04-24T04:58:08;1.23;;;1.00;;
16640;SDS011;8434;47.990;7.880;2023-04-24T05:00:54;1.30;;;0.90;;
16640;SDS011;8434;47.990;7.880;2023-04-24T05:03:49;2.10;;;0.90;;
16640;SDS011;8434;47.990;7.880;2023-04-24T05:06:35;1.53;;;1.00;;
16640;SDS011;8434;47.990;7.880;2023-04-24T05:09:22;1.77;;;1.23;;
16640;SDS011;8434;47.990;7.880;2023-04-24T05:12:14;1.87;;;1.30;;
16640;SDS011;8434;47.990;7.880;2023-04-24T05:15:07;1.97;;;1.20;;
16640;SDS011;8434;47.990;7.880;2023-04-24T05:17:52;1.70;;;1.27;;
16640;SDS011;8434;47.990;7.880;2023-04-24T05:20:39;1.87;;;1.10;;
16640;SDS011;8434;47.990;7.880;2023-04-24T05:23:27;2.17;;;1.07;;
16640;SDS011;8434;47.990;7.880;2023-04-24T05:26:14;3.70;;;1.13;;
16640;SDS011;8434;47.990;7.880;2023-04-24T05:28:59;2.03;;;1.43;;
16640;SDS011;8434;47.990;7.880;2023-04-24T05:31:45;1.53;;;1.20;;
16640;SDS011;8434;47.990;7.880;2023-04-24T05:34:30;3.33;;;1.23;;
16640;SDS011;8434;47.990;7.880;2023-04-24T05:37:17;2.70;;;1.50;;
16640;SDS011;8434;47.990;7.880;2023-04-24T05:40:02;1.53;;;1.43;;
16640;SDS011;8434;47.990;7.880;2023-04-24T05:42:49;2.33;;;1.20;;
16640;SDS011;8434;47.990;7.880;2023-04-24T05:45:35;1.70;;;1.60;;
16640;SDS011;8434;47.990;7.880;2023-04-24T05:48:20;1.50;;;1.40;;
16640;SDS011;8434;47.990;7.880;2023-04-24T05:51:06;3.00;;;1.80;;
16640;SDS011;8434;47.990;7.880;2023-04-24T05:53:53;2.83;;;1.60;;
16640;SDS011;8434;47.990;7.880;2023-04-24T05:56:38;4.00;;;1.70;;
16640;SDS011;8434;47.990;7.880;2023-04-24T05:59:24;1.77;;;1.40;;
16640;SDS011;8434;47.990;7.880;2023-04-24T06:02:10;3.47;;;1.87;;
16640;SDS011;8434;47.990;7.880;2023-04-24T06:04:55;2.27;;;2.00;;
16640;SDS011;8434;47.990;7.880;2023-04-24T06:07:42;2.10;;;1.60;;
16640;SDS011;8434;47.990;7.880;2023-04-24T06:10:28;2.73;;;2.03;;
16640;SDS011;8434;47.990;7.880;2023-04-24T06:13:14;3.73;;;1.97;;
16640;SDS011;8434;47.990;7.880;2023-04-24T06:16:09;1.67;;;1.57;;
16640;SDS011;8434;47.990;7.880;2023-04-24T06:18:57;1.63;;;1.50;;
16640;SDS011;8434;47.990;7.880;2023-04-24T06:21:43;2.23;;;1.60;;
16640;SDS011;8434;47.990;7.880;2023-04-24T06:24:29;4.60;;;1.97;;
16640;SDS011;8434;47.990;7.880;2023-04-24T06:27:17;2.27;;;1.60;;
16640;SDS011;8434;47.990;7.880;2023-04-24T06:30:03;2.07;;;1.53;;
16640;SDS011;8434;47.990;7.880;2023-04-24T06:32:48;3.60;;;1.80;;
16640;SDS011;8434;47.990;7.880;2023-04-24T06:35:34;3.07;;;1.77;;
16640;SDS011;8434;47.990;7.880;2023-04-24T06:38:19;5.87;;;2.20;;
16640;SDS011;8434;47.990;7.880;2023-04-24T06:41:05;2.40;;;1.63;;
16640;SDS011;8434;47.990;7.880;2023-04-24T06:43:52;3.77;;;1.53;;
16640;SDS011;8434;47.990;7.880;2023-04-24T06:46:37;2.53;;;1.93;;
16640;SDS011;8434;47.990;7.880;2023-04-24T06:49:23;2.37;;;2.00;;
16640;SDS011;8434;47.990;7.880;2023-04-24T06:52:08;2.77;;;1.60;;
16640;SDS011;8434;47.990;7.880;2023-04-24T06:54:59;3.17;;;1.53;;
16640;SDS011;8434;47.990;7.880;2023-04-24T06:57:44;1.93;;;1.63;;
16640;SDS011;8434;47.990;7.880;2023-04-24T07:00:31;2.40;;;1.80;;
16640;SDS011;8434;47.990;7.880;2023-04-24T07:03:16;3.33;;;1.80;;
16640;SDS011;8434;47.990;7.880;2023-04-24T07:06:02;2.03;;;1.53;;
16640;SDS011;8434;47.990;7.880;2023-04-24T07:08:48;3.03;;;1.47;;
16640;SDS011;8434;47.990;7.880;2023-04-24T07:11:33;1.43;;;1.33;;
16640;SDS011;8434;47.990;7.880;2023-04-24T07:14:22;3.13;;;1.53;;
16640;SDS011;8434;47.990;7.880;2023-04-24T07:17:09;2.37;;;2.03;;
16640;SDS011;8434;47.990;7.880;2023-04-24T07:19:54;1.57;;;1.20;;
16640;SDS011;8434;47.990;7.880;2023-04-24T07:22:39;3.47;;;1.30;;
16640;SDS011;8434;47.990;7.880;2023-04-24T07:25:25;3.53;;;1.30;;
16640;SDS011;8434;47.990;7.880;2023-04-24T07:28:11;1.27;;;1.17;;
16640;SDS011;8434;47.990;7.880;2023-04-24T07:30:56;3.40;;;1.30;;
16640;SDS011;8434;47.990;7.880;2023-04-24T07:33:43;1.23;;;1.07;;
16640;SDS011;8434;47.990;7.880;2023-04-24T07:36:29;2.20;;;1.23;;
16640;SDS011;8434;47.990;7.880;2023-04-24T07:39:14;2.03;;;1.20;;
16640;SDS011;8434;47.990;7.880;2023-04-24T07:42:00;1.53;;;1.20;;
16640;SDS011;8434;47.990;7.880;2023-04-24T07:44:46;1.33;;;1.17;;
16640;SDS011;8434;47.990;7.880;2023-04-24T07:47:31;2.40;;;1.10;;
16640;SDS011;8434;47.990;7.880;2023-04-24T07:50:18;1.27;;;0.80;;
16640;SDS011;8434;47.990;7.880;2023-04-24T07:53:04;2.20;;;1.48;;
16640;SDS011;8434;47.990;7.880;2023-04-24T07:55:49;1.55;;;0.98;;
16640;SDS011;8434;47.990;7.880;2023-04-24T07:58:35;2.45;;;1.13;;
16640;SDS011;8434;47.990;7.880;2023-04-24T08:01:20;3.33;;;1.15;;
16640;SDS011;8434;47.990;7.880;2023-04-24T08:04:05;2.53;;;1.30;;
16640;SDS011;8434;47.990;7.880;2023-04-24T08:06:52;1.40;;;1.30;;
16640;SDS011;8434;47.990;7.880;2023-04-24T08:09:38;3.33;;;1.40;;
16640;SDS011;8434;47.990;7.880;2023-04-24T08:12:24;1.73;;;1.30;;
16640;SDS011;8434;47.990;7.880;2023-04-24T08:15:09;2.37;;;1.63;;
16640;SDS011;8434;47.990;7.880;2023-04-24T08:17:55;4.90;;;1.80;;
16640;SDS011;8434;47.990;7.880;2023-04-24T08:20:40;1.93;;;1.40;;
16640;SDS011;8434;47.990;7.880;2023-04-24T08:23:27;2.90;;;1.70;;
16640;SDS011;8434;47.990;7.880;2023-04-24T08:26:13;3.90;;;1.73;;
16640;SDS011;8434;47.990;7.880;2023-04-24T08:28:59;2.47;;;1.47;;
16640;SDS011;8434;47.990;7.880;2023-04-24T08:31:45;2.10;;;1.57;;
16640;SDS011;8434;47.990;7.880;2023-04-24T08:34:30;3.97;;;1.80;;
16640;SDS011;8434;47.990;7.880;2023-04-24T08:37:16;1.83;;;1.60;;
16640;SDS011;8434;47.990;7.880;2023-04-24T08:40:04;3.00;;;1.63;;
16640;SDS011;8434;47.990;7.880;2023-04-24T08:42:50;1.73;;;1.57;;
16640;SDS011;8434;47.990;7.880;2023-04-24T08:45:39;3.53;;;1.63;;
16640;SDS011;8434;47.990;7.880;2023-04-24T08:48:25;3.00;;;1.60;;
16640;SDS011;8434;47.990;7.880;2023-04-24T08:51:10;1.63;;;1.27;;
16640;SDS011;8434;47.990;7.880;2023-04-24T08:53:56;4.63;;;1.53;;
16640;SDS011;8434;47.990;7.880;2023-04-24T08:56:44;6.47;;;1.40;;
16640;SDS011;8434;47.990;7.880;2023-04-24T08:59:30;2.40;;;1.47;;
16640;SDS011;8434;47.990;7.880;2023-04-24T09:02:16;2.30;;;1.40;;
16640;SDS011;8434;47.990;7.880;2023-04-24T09:05:02;2.47;;;1.27;;
16640;SDS011;8434;47.990;7.880;2023-04-24T09:07:49;2.43;;;1.10;;
16640;SDS011;8434;47.990;7.880;2023-04-24T09:10:39;4.77;;;1.43;;
16640;SDS011;8434;47.990;7.880;2023-04-24T09:13:26;2.50;;;1.30;;
16640;SDS011;8434;47.990;7.880;2023-04-24T09:16:12;3.47;;;1.30;;
16640;SDS011;8434;47.990;7.880;2023-04-24T09:18:59;3.23;;;1.20;;
16640;SDS011;8434;47.990;7.880;2023-04-24T09:21:45;2.07;;;1.13;;
16640;SDS011;8434;47.990;7.880;2023-04-24T09:24:30;1.47;;;0.97;;
16640;SDS011;8434;47.990;7.880;2023-04-24T09:27:16;3.97;;;1.77;;
16640;SDS011;8434;47.990;7.880;2023-04-24T09:30:04;3.60;;;1.60;;
16640;SDS011;8434;47.990;7.880;2023-04-24T09:32:53;2.60;;;1.40;;
16640;SDS011;8434;47.990;7.880;2023-04-24T09:35:55;2.73;;;1.10;;
16640;SDS011;8434;47.990;7.880;2023-04-24T09:38:40;4.30;;;1.00;;
16640;SDS011;8434;47.990;7.880;2023-04-24T09:41:26;1.53;;;1.00;;
16640;SDS011;8434;47.990;7.880;2023-04-24T09:44:12;2.43;;;1.30;;
16640;SDS011;8434;47.990;7.880;2023-04-24T09:47:00;3.37;;;1.13;;
16640;SDS011;8434;47.990;7.880;2023-04-24T09:49:45;2.77;;;1.20;;
16640;SDS011;8434;47.990;7.880;2023-04-24T09:52:30;1.77;;;1.40;;
16640;SDS011;8434;47.990;7.880;2023-04-24T09:55:18;2.20;;;1.40;;
16640;SDS011;8434;47.990;7.880;2023-04-24T09:58:03;2.20;;;1.03;;
16640;SDS011;8434;47.990;7.880;2023-04-24T10:00:49;1.97;;;1.17;;
16640;SDS011;8434;47.990;7.880;2023-04-24T10:03:36;2.57;;;1.23;;
16640;SDS011;8434;47.990;7.880;2023-04-24T10:06:22;1.97;;;1.07;;
16640;SDS011;8434;47.990;7.880;2023-04-24T10:09:07;1.50;;;1.00;;
16640;SDS011;8434;47.990;7.880;2023-04-24T10:11:55;1.93;;;0.80;;
16640;SDS011;8434;47.990;7.880;2023-04-24T10:14:40;0.90;;;0.67;;
16640;SDS011;8434;47.990;7.880;2023-04-24T10:17:26;1.50;;;0.83;;
16640;SDS011;8434;47.990;7.880;2023-04-24T10:20:14;1.50;;;0.90;;
16640;SDS011;8434;47.990;7.880;2023-04-24T10:23:00;1.13;;;0.80;;
16640;SDS011;8434;47.990;7.880;2023-04-24T10:25:45;0.80;;;0.70;;
16640;SDS011;8434;47.990;7.880;2023-04-24T10:28:31;2.43;;;0.90;;
16640;SDS011;8434;47.990;7.880;2023-04-24T10:31:17;1.07;;;0.80;;
16640;SDS011;8434;47.990;7.880;2023-04-24T10:34:03;1.10;;;0.70;;
16640;SDS011;8434;47.990;7.880;2023-04-24T10:36:51;1.63;;;0.90;;
16640;SDS011;8434;47.990;7.880;2023-04-24T10:39:37;3.20;;;0.90;;
16640;SDS011;8434;47.990;7.880;2023-04-24T10:42:24;3.93;;;1.23;;
16640;SDS011;8434;47.990;7.880;2023-04-24T10:45:16;1.27;;;0.73;;
16640;SDS011;8434;47.990;7.880;2023-04-24T10:48:02;2.10;;;0.83;;
16640;SDS011;8434;47.990;7.880;2023-04-24T10:50:48;0.80;;;0.70;;
16640;SDS011;8434;47.990;7.880;2023-04-24T10:53:37;0.93;;;0.90;;
16640;SDS011;8434;47.990;7.880;2023-04-24T10:56:22;1.67;;;0.90;;
16640;SDS011;8434;47.990;7.880;2023-04-24T10:59:08;4.40;;;4.07;;
16640;SDS011;8434;47.990;7.880;2023-04-24T11:01:55;5.00;;;1.40;;
16640;SDS011;8434;47.990;7.880;2023-04-24T11:04:41;2.13;;;1.43;;
16640;SDS011;8434;47.990;7.880;2023-04-24T11:07:26;1.47;;;1.07;;
16640;SDS011;8434;47.990;7.880;2023-04-24T11:10:23;2.80;;;1.60;;
16640;SDS011;8434;47.990;7.880;2023-04-24T11:13:10;3.17;;;1.40;;
16640;SDS011;8434;47.990;7.880;2023-04-24T11:16:20;0.90;;;0.90;;
16640;SDS011;8434;47.990;7.880;2023-04-24T11:19:06;1.93;;;1.10;;
16640;SDS011;8434;47.990;7.880;2023-04-24T11:21:56;1.70;;;0.97;;
16640;SDS011;8434;47.990;7.880;2023-04-24T11:24:48;3.70;;;1.20;;
16640;SDS011;8434;47.990;7.880;2023-04-24T11:27:42;1.90;;;1.00;;
16640;SDS011;8434;47.990;7.880;2023-04-24T11:30:29;1.00;;;0.90;;
16640;SDS011;8434;47.990;7.880;2023-04-24T11:33:14;1.87;;;0.80;;
16640;SDS011;8434;47.990;7.880;2023-04-24T11:36:04;1.47;;;1.00;;
16640;SDS011;8434;47.990;7.880;2023-04-24T11:38:50;2.30;;;1.37;;
16640;SDS011;8434;47.990;7.880;2023-04-24T11:41:35;2.03;;;1.10;;
16640;SDS011;8434;47.990;7.880;2023-04-24T11:44:23;1.73;;;1.20;;
16640;SDS011;8434;47.990;7.880;2023-04-24T11:47:10;1.30;;;1.03;;
16640;SDS011;8434;47.990;7.880;2023-04-24T11:49:55;1.30;;;0.80;;
16640;SDS011;8434;47.990;7.880;2023-04-24T11:52:41;1.30;;;1.03;;
16640;SDS011;8434;47.990;7.880;2023-04-24T11:55:27;2.67;;;1.10;;
16640;SDS011;8434;47.990;7.880;2023-04-24T11:58:13;2.60;;;1.10;;
16640;SDS011;8434;47.990;7.880;2023-04-24T12:00:59;1.50;;;1.10;;
16640;SDS011;8434;47.990;7.880;2023-04-24T12:03:47;2.97;;;1.17;;
16640;SDS011;8434;47.990;7.880;2023-04-24T12:06:32;2.33;;;1.27;;
16640;SDS011;8434;47.990;7.880;2023-04-24T12:09:18;3.27;;;1.50;;
16640;SDS011;8434;47.990;7.880;2023-04-24T12:12:04;4.33;;;2.07;;
16640;SDS011;8434;47.990;7.880;2023-04-24T12:14:52;2.57;;;1.63;;
16640;SDS011;8434;47.990;7.880;2023-04-24T12:17:41;2.33;;;1.37;;
16640;SDS011;8434;47.990;7.880;2023-04-24T12:20:27;2.10;;;1.27;;
16640;SDS011;8434;47.990;7.880;2023-04-24T12:23:12;3.37;;;1.50;;
16640;SDS011;8434;47.990;7.880;2023-04-24T12:25:59;1.10;;;1.00;;
16640;SDS011;8434;47.990;7.880;2023-04-24T12:28:46;2.70;;;1.40;;
16640;SDS011;8434;47.990;7.880;2023-04-24T12:31:32;2.70;;;1.10;;
16640;SDS011;8434;47.990;7.880;2023-04-24T12:34:20;2.57;;;1.50;;
16640;SDS011;8434;47.990;7.880;2023-04-24T12:37:09;3.03;;;1.30;;
16640;SDS011;8434;47.990;7.880;2023-04-24T12:39:58;3.50;;;1.60;;
16640;SDS011;8434;47.990;7.880;2023-04-24T12:42:48;4.60;;;2.57;;
16640;SDS011;8434;47.990;7.880;2023-04-24T12:45:33;4.33;;;1.67;;
16640;SDS011;8434;47.990;7.880;2023-04-24T12:48:19;1.97;;;1.30;;
16640;SDS011;8434;47.990;7.880;2023-04-24T12:51:07;1.10;;;1.00;;
16640;SDS011;8434;47.990;7.880;2023-04-24T12:53:53;1.50;;;1.10;;
16640;SDS011;8434;47.990;7.880;2023-04-24T12:56:38;1.30;;;1.20;;
16640;SDS011;8434;47.990;7.880;2023-04-24T13:02:28;1.20;;;1.00;;
16640;SDS011;8434;47.990;7.880;2023-04-24T13:05:14;1.73;;;1.20;;
16640;SDS011;8434;47.990;7.880;2023-04-24T13:08:01;3.83;;;1.40;;
16640;SDS011;8434;47.990;7.880;2023-04-24T13:10:47;2.70;;;1.50;;
16640;SDS011;8434;47.990;7.880;2023-04-24T13:13:32;2.27;;;1.60;;
16640;SDS011;8434;47.990;7.880;2023-04-24T13:16:17;2.30;;;1.23;;
16640;SDS011;8434;47.990;7.880;2023-04-24T13:19:03;3.33;;;1.20;;
16640;SDS011;8434;47.990;7.880;2023-04-24T13:21:49;11.93;;;2.00;;
16640;SDS011;8434;47.990;7.880;2023-04-24T13:24:35;3.57;;;2.13;;
16640;SDS011;8434;47.990;7.880;2023-04-24T13:27:21;1.70;;;1.60;;
16640;SDS011;8434;47.990;7.880;2023-04-24T13:30:07;2.17;;;1.20;;
16640;SDS011;8434;47.990;7.880;2023-04-24T13:32:53;2.20;;;1.30;;
16640;SDS011;8434;47.990;7.880;2023-04-24T13:35:38;2.27;;;1.30;;
16640;SDS011;8434;47.990;7.880;2023-04-24T13:38:24;2.70;;;1.57;;
16640;SDS011;8434;47.990;7.880;2023-04-24T13:41:10;2.30;;;1.70;;
16640;SDS011;8434;47.990;7.880;2023-04-24T13:43:56;3.20;;;1.40;;
16640;SDS011;8434;47.990;7.880;2023-04-24T13:46:41;2.00;;;1.20;;
16640;SDS011;8434;47.990;7.880;2023-04-24T13:49:27;1.90;;;1.47;;
16640;SDS011;8434;47.990;7.880;2023-04-24T13:52:13;2.30;;;1.60;;
16640;SDS011;8434;47.990;7.880;2023-04-24T13:54:59;2.13;;;1.33;;
16640;SDS011;8434;47.990;7.880;2023-04-24T13:57:46;1.77;;;1.33;;
16640;SDS011;8434;47.990;7.880;2023-04-24T14:00:31;4.83;;;2.23;;
16640;SDS011;8434;47.990;7.880;2023-04-24T14:03:16;3.07;;;1.50;;
16640;SDS011;8434;47.990;7.880;2023-04-24T14:06:02;3.30;;;1.70;;
16640;SDS011;8434;47.990;7.880;2023-04-24T14:08:47;2.17;;;1.43;;
16640;SDS011;8434;47.990;7.880;2023-04-24T14:11:33;3.30;;;1.20;;
16640;SDS011;8434;47.990;7.880;2023-04-24T14:14:20;2.43;;;1.50;;
16640;SDS011;8434;47.990;7.880;2023-04-24T14:17:05;1.50;;;1.37;;
16640;SDS011;8434;47.990;7.880;2023-04-24T14:19:51;2.50;;;1.30;;
16640;SDS011;8434;47.990;7.880;2023-04-24T14:22:40;3.03;;;1.43;;
16640;SDS011;8434;47.990;7.880;2023-04-24T14:25:25;2.43;;;1.20;;
16640;SDS011;8434;47.990;7.880;2023-04-24T14:28:11;1.87;;;1.50;;
16640;SDS011;8434;47.990;7.880;2023-04-24T14:30:58;2.10;;;1.40;;
16640;SDS011;8434;47.990;7.880;2023-04-24T14:33:44;1.80;;;1.60;;
16640;SDS011;8434;47.990;7.880;2023-04-24T14:36:29;3.00;;;1.53;;
16640;SDS011;8434;47.990;7.880;2023-04-24T14:39:15;3.23;;;1.20;;
16640;SDS011;8434;47.990;7.880;2023-04-24T14:42:01;1.50;;;1.10;;
16640;SDS011;8434;47.990;7.880;2023-04-24T14:44:46;2.43;;;1.47;;
16640;SDS011;8434;47.990;7.880;2023-04-24T14:47:33;2.23;;;1.30;;
16640;SDS011;8434;47.990;7.880;2023-04-24T14:50:18;1.83;;;1.40;;
16640;SDS011;8434;47.990;7.880;2023-04-24T14:53:03;1.97;;;1.27;;
16640;SDS011;8434;47.990;7.880;2023-04-24T14:55:49;2.27;;;1.77;;
16640;SDS011;8434;47.990;7.880;2023-04-24T14:58:34;2.90;;;1.53;;
16640;SDS011;8434;47.990;7.880;2023-04-24T15:01:20;3.80;;;1.77;;
16640;SDS011;8434;47.990;7.880;2023-04-24T15:04:07;3.27;;;1.60;;
16640;SDS011;8434;47.990;7.880;2023-04-24T15:06:52;1.90;;;1.40;;
16640;SDS011;8434;47.990;7.880;2023-04-24T15:09:37;3.27;;;1.53;;
16640;SDS011;8434;47.990;7.880;2023-04-24T15:12:23;1.93;;;1.33;;
16640;SDS011;8434;47.990;7.880;2023-04-24T15:15:09;2.70;;;1.50;;
16640;SDS011;8434;47.990;7.880;2023-04-24T15:17:54;2.37;;;1.57;;
16640;SDS011;8434;47.990;7.880;2023-04-24T15:20:41;3.63;;;2.60;;
16640;SDS011;8434;47.990;7.880;2023-04-24T15:23:26;3.47;;;1.90;;
16640;SDS011;8434;47.990;7.880;2023-04-24T15:26:12;6.67;;;2.40;;
16640;SDS011;8434;47.990;7.880;2023-04-24T15:28:57;5.73;;;2.00;;
16640;SDS011;8434;47.990;7.880;2023-04-24T15:31:43;2.33;;;1.83;;
16640;SDS011;8434;47.990;7.880;2023-04-24T15:34:28;2.60;;;1.60;;
16640;SDS011;8434;47.990;7.880;2023-04-24T15:37:15;2.90;;;1.93;;
16640;SDS011;8434;47.990;7.880;2023-04-24T15:40:01;3.57;;;2.43;;
16640;SDS011;8434;47.990;7.880;2023-04-24T15:42:48;4.33;;;2.13;;
16640;SDS011;8434;47.990;7.880;2023-04-24T15:45:34;5.67;;;1.97;;
16640;SDS011;8434;47.990;7.880;2023-04-24T15:48:19;1.77;;;1.63;;
16640;SDS011;8434;47.990;7.880;2023-04-24T15:51:05;4.27;;;2.10;;
16640;SDS011;8434;47.990;7.880;2023-04-24T15:53:51;2.83;;;1.73;;
16640;SDS011;8434;47.990;7.880;2023-04-24T15:56:37;2.27;;;1.80;;
16640;SDS011;8434;47.990;7.880;2023-04-24T15:59:22;4.43;;;2.13;;
16640;SDS011;8434;47.990;7.880;2023-04-24T16:02:08;4.03;;;1.93;;
16640;SDS011;8434;47.990;7.880;2023-04-24T16:04:54;3.90;;;1.90;;
16640;SDS011;8434;47.990;7.880;2023-04-24T16:07:40;3.83;;;1.80;;
16640;SDS011;8434;47.990;7.880;2023-04-24T16:10:27;2.50;;;2.30;;
16640;SDS011;8434;47.990;7.880;2023-04-24T16:13:12;2.90;;;1.90;;
16640;SDS011;8434;47.990;7.880;2023-04-24T16:15:57;3.10;;;1.93;;
16640;SDS011;8434;47.990;7.880;2023-04-24T16:18:43;2.20;;;1.80;;
16640;SDS011;8434;47.990;7.880;2023-04-24T16:21:28;3.53;;;2.10;;
16640;SDS011;8434;47.990;7.880;2023-04-24T16:24:14;2.17;;;1.97;;
16640;SDS011;8434;47.990;7.880;2023-04-24T16:27:01;3.07;;;2.40;;
16640;SDS011;8434;47.990;7.880;2023-04-24T16:29:47;2.77;;;2.13;;
16640;SDS011;8434;47.990;7.880;2023-04-24T16:32:32;2.30;;;2.10;;
16640;SDS011;8434;47.990;7.880;2023-04-24T16:35:18;3.00;;;2.27;;
16640;SDS011;8434;47.990;7.880;2023-04-24T16:38:03;3.37;;;2.00;;
16640;SDS011;8434;47.990;7.880;2023-04-24T16:40:49;4.90;;;2.47;;
16640;SDS011;8434;47.990;7.880;2023-04-24T16:43:36;3.53;;;2.03;;
16640;SDS011;8434;47.990;7.880;2023-04-24T16:46:21;3.27;;;2.10;;
16640;SDS011;8434;47.990;7.880;2023-04-24T16:49:06;4.10;;;2.20;;
16640;SDS011;8434;47.990;7.880;2023-04-24T16:51:52;2.23;;;1.93;;
16640;SDS011;8434;47.990;7.880;2023-04-24T16:54:37;3.47;;;2.17;;
16640;SDS011;8434;47.990;7.880;2023-04-24T16:57:23;4.57;;;1.90;;
16640;SDS011;8434;47.990;7.880;2023-04-24T17:00:10;3.47;;;2.27;;
16640;SDS011;8434;47.990;7.880;2023-04-24T17:02:56;4.37;;;2.33;;